Pen Argyl, Pennsylvania
Current Conditions -  °F | °C
As of 7:51 AM on Friday 19 Dec 2014 (Local Time) from KABE Reporting Station
Overcast Overcast  
Wind Chill: 32°   Ceiling: 2900
Heat Index: 36°   Visibility: 10mi
Dew Point: 26°   Wind: 5mph
Humidity: 67%   Direction: 310°NW
Pressure: 30.04"   Gusts: NA
Location:  40.87°N, 75.25°W
Report Text: KABE 191251Z 31004KT 10SM BKN029 OVC033 02/M03 A3004 RMK AO2 SLP176 T00221033
Loading
Personal Weather Stations






























Interactive Weather Map New forecast layout! Learn more

10-Day Weather Forecast

Advertisements
Track Severe Weather on mobile